createdAt,value
2023-02-25T00:00:40.233Z,1.60
2023-02-25T00:03:08.603Z,1.63
2023-02-25T00:05:41.254Z,1.53
2023-02-25T00:08:10.052Z,1.70
2023-02-25T00:10:38.469Z,1.93
2023-02-25T00:13:17.864Z,1.60
2023-02-25T00:15:46.654Z,1.33
2023-02-25T00:18:14.973Z,1.27
2023-02-25T00:20:44.676Z,1.63
2023-02-25T00:23:13.660Z,1.40
2023-02-25T00:25:41.986Z,2.30
2023-02-25T00:28:10.397Z,1.30
2023-02-25T00:30:39.748Z,1.00
2023-02-25T00:33:08.253Z,1.30
2023-02-25T00:35:36.575Z,1.70
2023-02-25T00:38:15.754Z,0.93
2023-02-25T00:40:44.558Z,1.27
2023-02-25T00:43:12.905Z,1.77
2023-02-25T00:45:41.465Z,1.60
2023-02-25T00:48:09.748Z,1.27
2023-02-25T00:50:39.756Z,1.00
2023-02-25T00:53:09.460Z,1.37
2023-02-25T00:55:37.779Z,1.27
2023-02-25T00:58:06.121Z,1.50
2023-02-25T01:00:46.525Z,1.47
2023-02-25T01:03:19.619Z,1.10
2023-02-25T01:05:49.550Z,1.27
2023-02-25T01:08:19.714Z,1.40
2023-02-25T01:10:48.391Z,1.30
2023-02-25T01:13:16.811Z,1.50
2023-02-25T01:15:45.392Z,1.37
2023-02-25T01:18:13.731Z,1.20
2023-02-25T01:20:42.034Z,0.83
2023-02-25T01:23:10.317Z,0.83
2023-02-25T01:25:42.289Z,1.30
2023-02-25T01:28:10.588Z,1.00
2023-02-25T01:30:39.128Z,1.53
2023-02-25T01:33:07.433Z,1.03
2023-02-25T01:35:37.458Z,1.00
2023-02-25T01:38:05.747Z,1.07
2023-02-25T01:40:34.059Z,0.60
2023-02-25T01:43:03.774Z,1.03
2023-02-25T01:45:32.785Z,1.10
2023-02-25T01:48:05.317Z,0.70
2023-02-25T01:50:35.512Z,1.03
2023-02-25T01:53:03.808Z,1.20
2023-02-25T01:55:32.121Z,0.97
2023-02-25T01:58:00.506Z,1.00
2023-02-25T02:00:30.295Z,0.70
2023-02-25T02:02:58.609Z,1.10
2023-02-25T02:05:27.416Z,1.10
2023-02-25T02:07:55.690Z,0.93
2023-02-25T02:10:24.002Z,0.90
2023-02-25T02:12:52.382Z,0.90
2023-02-25T02:15:20.633Z,1.00
2023-02-25T02:17:51.533Z,1.03
2023-02-25T02:20:21.391Z,0.80
2023-02-25T02:23:16.516Z,0.77
2023-02-25T02:25:53.678Z,0.77
2023-02-25T02:28:39.965Z,0.90
2023-02-25T02:31:13.448Z,1.03
2023-02-25T02:33:43.257Z,0.70
2023-02-25T02:36:13.918Z,0.90
2023-02-25T02:38:44.082Z,0.50
2023-02-25T02:41:13.226Z,0.30
2023-02-25T02:43:42.620Z,0.90
2023-02-25T02:46:15.300Z,0.83
2023-02-25T02:48:44.464Z,0.83
2023-02-25T02:51:13.511Z,1.10
2023-02-25T02:53:41.961Z,0.90
2023-02-25T02:56:10.842Z,0.53
2023-02-25T02:58:39.414Z,0.70
2023-02-25T03:01:08.796Z,0.50
2023-02-25T03:03:41.324Z,0.67
2023-02-25T03:06:11.151Z,0.90
2023-02-25T03:08:41.773Z,0.50
2023-02-25T03:11:10.312Z,0.70
2023-02-25T03:13:38.581Z,0.50
2023-02-25T03:16:07.619Z,0.70
2023-02-25T03:18:39.102Z,0.53
2023-02-25T03:21:10.033Z,0.77
2023-02-25T03:23:38.450Z,0.80
2023-02-25T03:26:10.515Z,0.80
2023-02-25T03:28:38.797Z,0.80
2023-02-25T03:31:07.972Z,0.90
2023-02-25T03:33:37.881Z,0.47
2023-02-25T03:36:07.564Z,0.93
2023-02-25T03:38:37.169Z,0.70
2023-02-25T03:41:07.148Z,0.60
2023-02-25T03:43:35.801Z,0.50
2023-02-25T03:46:04.197Z,0.60
2023-02-25T03:48:32.518Z,0.53
2023-02-25T03:51:01.379Z,0.50
2023-02-25T03:53:29.709Z,0.60
2023-02-25T03:55:59.756Z,0.60
2023-02-25T03:58:28.032Z,0.40
2023-02-25T04:00:57.865Z,1.13
2023-02-25T04:03:26.111Z,0.60
2023-02-25T04:05:54.416Z,0.70
2023-02-25T04:08:22.732Z,0.80
2023-02-25T04:10:50.997Z,0.43
2023-02-25T04:13:20.929Z,0.70
2023-02-25T04:15:49.469Z,0.50
2023-02-25T04:18:17.803Z,0.50
2023-02-25T04:20:46.109Z,0.90
2023-02-25T04:23:15.063Z,0.30
2023-02-25T04:25:43.601Z,0.53
2023-02-25T04:28:11.990Z,0.97
2023-02-25T04:30:41.690Z,0.67
2023-02-25T04:33:10.995Z,0.30
2023-02-25T04:35:39.417Z,0.47
2023-02-25T04:38:09.198Z,0.33
2023-02-25T04:40:37.828Z,0.47
2023-02-25T04:43:06.217Z,0.50
2023-02-25T04:45:34.514Z,0.53
2023-02-25T04:48:04.196Z,0.60
2023-02-25T04:50:32.525Z,0.50
2023-02-25T04:53:02.195Z,0.23
2023-02-25T04:55:30.593Z,0.30
2023-02-25T04:57:58.929Z,0.30
2023-02-25T05:00:27.979Z,0.50
2023-02-25T05:02:56.316Z,0.50
2023-02-25T05:05:25.985Z,0.30
2023-02-25T05:07:54.320Z,0.57
2023-02-25T05:10:22.725Z,0.67
2023-02-25T05:12:51.109Z,0.60
2023-02-25T05:15:19.363Z,0.43
2023-02-25T05:17:47.833Z,0.50
2023-02-25T05:20:16.169Z,0.60
2023-02-25T05:22:45.841Z,0.93
2023-02-25T05:25:14.638Z,0.50
2023-02-25T05:27:42.934Z,0.40
2023-02-25T05:30:11.788Z,0.40
2023-02-25T05:32:40.215Z,0.40
2023-02-25T05:35:09.962Z,0.80
2023-02-25T05:37:38.310Z,0.50
2023-02-25T05:40:09.754Z,0.20
2023-02-25T05:42:38.440Z,0.70
2023-02-25T05:45:06.999Z,0.70
2023-02-25T05:47:35.801Z,0.20
2023-02-25T05:50:04.136Z,0.73
2023-02-25T05:52:32.481Z,0.47
2023-02-25T05:55:00.769Z,0.50
2023-02-25T05:57:30.407Z,0.33
2023-02-25T05:59:58.747Z,0.40
2023-02-25T06:02:27.196Z,0.23
2023-02-25T06:04:55.523Z,0.60
2023-02-25T06:07:23.811Z,0.30
2023-02-25T06:09:52.102Z,0.40
2023-02-25T06:12:20.404Z,0.47
2023-02-25T06:14:50.120Z,0.20
2023-02-25T06:17:18.398Z,0.70
2023-02-25T06:19:46.750Z,0.33
2023-02-25T06:22:15.059Z,0.20
2023-02-25T06:24:43.485Z,0.40
2023-02-25T06:27:11.759Z,0.33
2023-02-25T06:29:41.821Z,0.20
2023-02-25T06:32:11.925Z,0.30
2023-02-25T06:34:40.380Z,0.30
2023-02-25T06:37:08.772Z,0.80
2023-02-25T06:39:37.093Z,0.40
2023-02-25T06:42:05.395Z,0.33
2023-02-25T06:44:33.698Z,0.70
2023-02-25T06:47:01.942Z,0.30
2023-02-25T06:49:32.012Z,0.30
2023-02-25T06:52:00.437Z,0.10
2023-02-25T06:54:28.986Z,0.50
2023-02-25T06:56:57.333Z,0.20
2023-02-25T06:59:25.912Z,0.40
2023-02-25T07:01:54.434Z,0.30
2023-02-25T07:04:22.760Z,0.43
2023-02-25T07:06:52.541Z,0.20
2023-02-25T07:09:20.813Z,0.20
2023-02-25T07:11:49.129Z,0.43
2023-02-25T07:14:17.706Z,0.30
2023-02-25T07:16:46.032Z,0.20
2023-02-25T07:19:16.544Z,0.53
2023-02-25T07:21:45.200Z,0.40
2023-02-25T07:24:15.077Z,0.30
2023-02-25T07:26:43.373Z,0.30
2023-02-25T07:29:13.899Z,0.33
2023-02-25T07:31:42.349Z,0.40
2023-02-25T07:34:11.312Z,0.30
2023-02-25T07:36:39.833Z,0.30
2023-02-25T07:39:08.918Z,0.20
2023-02-25T07:41:38.589Z,0.50
2023-02-25T07:44:07.399Z,0.83
2023-02-25T07:46:35.791Z,0.30
2023-02-25T07:49:04.276Z,0.30
2023-02-25T07:51:32.822Z,0.40
2023-02-25T07:54:01.180Z,0.40
2023-02-25T07:56:29.857Z,0.70
2023-02-25T07:58:59.677Z,0.30
2023-02-25T08:01:28.550Z,0.43
2023-02-25T08:03:57.689Z,0.27
2023-02-25T08:06:26.440Z,0.30
2023-02-25T08:08:55.374Z,0.57
2023-02-25T08:11:24.546Z,0.20
2023-02-25T08:13:53.066Z,0.50
2023-02-25T08:16:22.830Z,0.23
2023-02-25T08:18:52.975Z,0.23
2023-02-25T08:21:23.349Z,0.50
2023-02-25T08:23:52.029Z,0.43
2023-02-25T08:26:22.663Z,0.50
2023-02-25T08:28:51.352Z,0.40
2023-02-25T08:31:19.805Z,0.20
2023-02-25T08:33:52.713Z,0.43
2023-02-25T08:36:21.633Z,0.50
2023-02-25T08:38:50.253Z,0.40
2023-02-25T08:41:18.798Z,0.20
2023-02-25T08:43:49.783Z,0.23
2023-02-25T08:46:20.031Z,0.70
2023-02-25T08:48:51.804Z,0.73
2023-02-25T08:51:20.162Z,0.30
2023-02-25T08:53:48.446Z,0.47
2023-02-25T08:56:17.561Z,0.40
2023-02-25T08:58:45.938Z,0.33
2023-02-25T09:01:15.819Z,0.40
2023-02-25T09:03:51.421Z,0.40
2023-02-25T09:06:21.439Z,0.50
2023-02-25T09:08:49.740Z,0.20
2023-02-25T09:11:18.372Z,0.60
2023-02-25T09:13:46.755Z,0.67
2023-02-25T09:16:17.528Z,0.47
2023-02-25T09:18:46.207Z,0.33
2023-02-25T09:21:14.528Z,0.30
2023-02-25T09:23:44.194Z,0.53
2023-02-25T09:26:12.840Z,0.27
2023-02-25T09:28:41.159Z,0.40
2023-02-25T09:31:09.467Z,0.30
2023-02-25T09:33:37.883Z,0.23
2023-02-25T09:36:07.611Z,0.50
2023-02-25T09:38:35.968Z,0.30
2023-02-25T09:41:06.060Z,0.87
2023-02-25T09:43:37.200Z,0.43
2023-02-25T09:46:07.764Z,0.40
2023-02-25T09:48:36.522Z,0.50
2023-02-25T09:51:05.968Z,0.83
2023-02-25T09:53:35.736Z,0.50
2023-02-25T09:56:04.160Z,0.60
2023-02-25T09:58:35.201Z,0.20
2023-02-25T10:01:05.712Z,0.40
2023-02-25T10:03:41.253Z,0.33
2023-02-25T10:06:11.599Z,0.33
2023-02-25T10:08:40.462Z,0.60
2023-02-25T10:11:10.081Z,0.53
2023-02-25T10:13:42.628Z,0.60
2023-02-25T10:16:18.054Z,0.20
2023-02-25T10:18:51.712Z,0.33
2023-02-25T10:21:23.297Z,0.30
2023-02-25T10:23:53.615Z,0.90
2023-02-25T10:26:22.552Z,0.40
2023-02-25T10:28:52.654Z,0.20
2023-02-25T10:31:21.292Z,0.77
2023-02-25T10:33:50.179Z,0.73
2023-02-25T10:36:19.278Z,0.40
2023-02-25T10:38:50.188Z,0.47
2023-02-25T10:41:18.459Z,0.50
2023-02-25T10:43:46.960Z,0.63
2023-02-25T10:46:17.962Z,0.27
2023-02-25T10:48:49.148Z,0.47
2023-02-25T10:51:17.843Z,0.50
2023-02-25T10:54:02.455Z,0.13
2023-02-25T10:56:32.990Z,0.50
2023-02-25T10:59:02.464Z,0.60
2023-02-25T11:01:36.539Z,0.63
2023-02-25T11:04:05.781Z,0.50
2023-02-25T11:06:35.438Z,0.50
2023-02-25T11:09:04.444Z,0.70
2023-02-25T11:11:33.015Z,0.50
2023-02-25T11:14:02.308Z,0.30
2023-02-25T11:16:31.096Z,0.43
2023-02-25T11:19:01.571Z,0.37
2023-02-25T11:21:30.916Z,0.40
2023-02-25T11:24:02.029Z,0.40
2023-02-25T11:26:31.386Z,0.60
2023-02-25T11:29:00.782Z,0.27
2023-02-25T11:31:31.207Z,0.67
2023-02-25T11:34:01.756Z,0.57
2023-02-25T11:36:31.406Z,0.60
2023-02-25T11:39:07.406Z,0.53
2023-02-25T11:41:35.718Z,0.27
2023-02-25T11:44:12.689Z,0.30
2023-02-25T11:46:41.075Z,0.30
2023-02-25T11:49:15.337Z,0.40
2023-02-25T11:51:47.011Z,0.33
2023-02-25T11:54:20.436Z,0.40
2023-02-25T11:56:50.022Z,0.30
2023-02-25T11:59:23.617Z,0.53
2023-02-25T12:01:55.292Z,0.60
2023-02-25T12:04:41.421Z,0.40
2023-02-25T12:07:27.214Z,0.30
2023-02-25T12:10:00.722Z,0.50
2023-02-25T12:12:46.677Z,0.30
2023-02-25T12:15:20.636Z,0.43
2023-02-25T12:20:52.037Z,0.37
2023-02-25T12:23:38.831Z,0.33
2023-02-25T12:26:09.241Z,0.60
2023-02-25T12:28:54.495Z,0.63
2023-02-25T12:31:27.599Z,0.33
2023-02-25T12:34:04.236Z,0.30
2023-02-25T12:36:43.774Z,0.43
2023-02-25T12:39:18.997Z,0.70
2023-02-25T12:41:50.186Z,0.60
2023-02-25T12:44:27.788Z,0.90
2023-02-25T12:47:03.203Z,0.40
2023-02-25T12:49:37.440Z,0.40
2023-02-25T12:52:17.590Z,0.30
2023-02-25T12:55:06.876Z,0.50
2023-02-25T12:57:40.082Z,0.30
2023-02-25T13:00:31.759Z,0.40
2023-02-25T13:03:05.044Z,0.40
2023-02-25T13:05:51.955Z,0.43
2023-02-25T13:08:39.065Z,0.60
2023-02-25T13:11:10.565Z,0.70
2023-02-25T13:13:47.517Z,0.50
2023-02-25T13:16:18.857Z,0.70
2023-02-25T13:18:50.913Z,0.40
2023-02-25T13:21:24.726Z,0.60
2023-02-25T13:24:02.202Z,0.67
2023-02-25T13:26:41.979Z,0.53
2023-02-25T13:29:31.605Z,0.67
2023-02-25T13:32:04.852Z,1.23
2023-02-25T13:34:36.422Z,1.00
2023-02-25T13:37:28.451Z,0.87
2023-02-25T13:40:06.560Z,1.30
2023-02-25T13:42:43.382Z,0.83
2023-02-25T13:45:29.637Z,1.23
2023-02-25T13:48:04.885Z,1.10
2023-02-25T13:50:35.412Z,0.93
2023-02-25T13:53:08.830Z,1.57
2023-02-25T13:55:47.283Z,1.00
2023-02-25T13:58:33.534Z,1.20
2023-02-25T14:01:06.478Z,1.23
2023-02-25T14:03:49.358Z,1.60
2023-02-25T14:06:22.754Z,1.20
2023-02-25T14:08:55.204Z,1.83
2023-02-25T14:11:31.087Z,1.50
2023-02-25T14:14:03.535Z,0.70
2023-02-25T14:16:36.024Z,1.23
2023-02-25T14:19:09.416Z,1.53
2023-02-25T14:21:52.883Z,1.00
2023-02-25T14:24:22.051Z,1.30
2023-02-25T14:26:53.717Z,1.30
2023-02-25T14:29:23.109Z,2.03
2023-02-25T14:31:55.546Z,1.80
2023-02-25T14:34:28.665Z,1.20
2023-02-25T14:37:01.962Z,1.37
2023-02-25T14:39:32.859Z,0.93
2023-02-25T14:42:05.981Z,1.50
2023-02-25T14:44:35.334Z,1.67
2023-02-25T14:47:04.665Z,1.50
2023-02-25T14:49:35.468Z,1.40
2023-02-25T14:52:14.205Z,1.80
2023-02-25T14:55:00.174Z,0.93
2023-02-25T14:57:44.074Z,1.10
2023-02-25T15:00:31.701Z,1.70
2023-02-25T15:03:03.693Z,1.50
2023-02-25T15:05:39.258Z,1.30
2023-02-25T15:08:28.308Z,1.10
2023-02-25T15:11:02.244Z,1.50
2023-02-25T15:13:58.062Z,1.43
2023-02-25T15:16:47.544Z,1.00
2023-02-25T15:19:45.818Z,1.67
2023-02-25T15:22:25.412Z,1.33
2023-02-25T15:24:54.009Z,1.50
2023-02-25T15:27:42.923Z,1.77
2023-02-25T15:30:12.126Z,1.70
2023-02-25T15:32:58.753Z,1.03
2023-02-25T15:35:50.124Z,1.30
2023-02-25T15:38:21.726Z,1.30
2023-02-25T15:40:51.159Z,1.70
2023-02-25T15:43:43.647Z,1.23
2023-02-25T15:46:27.788Z,0.73
2023-02-25T15:49:04.403Z,0.80
2023-02-25T15:51:43.439Z,1.23
2023-02-25T15:54:13.300Z,1.17
2023-02-25T15:56:48.723Z,1.00
2023-02-25T15:59:35.793Z,1.60
2023-02-25T16:02:04.125Z,1.30
2023-02-25T16:04:48.899Z,0.73
2023-02-25T16:07:17.846Z,1.17
2023-02-25T16:09:48.240Z,1.10
2023-02-25T16:12:17.100Z,1.00
2023-02-25T16:14:45.396Z,0.70
2023-02-25T16:17:17.253Z,1.37
2023-02-25T16:19:45.560Z,0.87
2023-02-25T16:22:15.032Z,1.13
2023-02-25T16:24:44.663Z,1.10
2023-02-25T16:27:15.884Z,1.07
2023-02-25T16:29:50.705Z,0.80
2023-02-25T16:32:22.029Z,1.10
2023-02-25T16:34:51.818Z,0.77
2023-02-25T16:37:21.974Z,0.60
2023-02-25T16:39:50.278Z,1.07
2023-02-25T16:42:21.411Z,1.10
2023-02-25T16:44:49.993Z,0.60
2023-02-25T16:47:23.544Z,1.43
2023-02-25T16:49:51.857Z,0.97
2023-02-25T16:52:21.370Z,1.30
2023-02-25T16:54:49.972Z,1.10
2023-02-25T16:57:22.181Z,0.80
2023-02-25T16:59:52.392Z,0.97
2023-02-25T17:02:24.662Z,1.10
2023-02-25T17:04:53.166Z,0.97
2023-02-25T17:07:22.848Z,1.00
2023-02-25T17:09:51.636Z,1.10
2023-02-25T17:12:22.707Z,0.77
2023-02-25T17:14:51.540Z,0.70
2023-02-25T17:17:21.729Z,0.70
2023-02-25T17:19:50.471Z,0.77
2023-02-25T17:22:20.880Z,0.97
2023-02-25T17:24:49.197Z,1.27
2023-02-25T17:27:17.652Z,1.13
2023-02-25T17:29:47.369Z,1.20
2023-02-25T17:32:20.805Z,1.40
2023-02-25T17:34:49.092Z,1.37
2023-02-25T17:37:17.542Z,1.73
2023-02-25T17:39:46.146Z,1.43
2023-02-25T17:42:27.877Z,1.60
2023-02-25T17:44:57.851Z,2.03
2023-02-25T17:47:26.575Z,1.63
2023-02-25T17:49:54.904Z,1.47
2023-02-25T17:52:23.680Z,2.17
2023-02-25T17:54:53.701Z,1.93
2023-02-25T17:57:22.300Z,2.10
2023-02-25T17:59:51.454Z,2.47
2023-02-25T18:02:32.549Z,2.00
2023-02-25T18:05:11.356Z,2.40
2023-02-25T18:07:40.097Z,1.43
2023-02-25T18:10:08.752Z,2.80
2023-02-25T18:12:37.674Z,2.57
2023-02-25T18:15:06.674Z,2.80
2023-02-25T18:17:36.532Z,2.80
2023-02-25T18:20:05.621Z,3.07
2023-02-25T18:22:34.937Z,2.40
2023-02-25T18:25:03.677Z,2.70
2023-02-25T18:27:33.057Z,3.87
2023-02-25T18:30:03.968Z,3.70
2023-02-25T18:32:32.388Z,3.77
2023-02-25T18:35:02.192Z,2.90
2023-02-25T18:37:30.493Z,2.77
2023-02-25T18:39:58.890Z,2.40
2023-02-25T18:42:27.633Z,3.83
2023-02-25T18:44:55.935Z,3.03
2023-02-25T18:47:24.252Z,4.07
2023-02-25T18:49:53.114Z,3.20
2023-02-25T18:52:23.486Z,4.00
2023-02-25T18:54:51.809Z,3.60
2023-02-25T18:57:21.870Z,3.90
2023-02-25T18:59:50.274Z,3.13
2023-02-25T19:02:26.106Z,3.70
2023-02-25T19:04:55.442Z,3.83
2023-02-25T19:07:26.418Z,4.00
2023-02-25T19:09:55.812Z,14.10
2023-02-25T19:12:24.442Z,30.60
2023-02-25T19:14:54.313Z,26.40
2023-02-25T19:17:22.604Z,20.10
2023-02-25T19:19:50.891Z,21.43
2023-02-25T19:22:19.604Z,16.07
2023-02-25T19:24:49.759Z,27.50
2023-02-25T19:27:20.313Z,25.80
2023-02-25T19:29:48.882Z,26.77
2023-02-25T19:32:17.804Z,23.30
2023-02-25T19:34:46.396Z,23.83
2023-02-25T19:37:14.689Z,25.23
2023-02-25T19:39:43.247Z,19.70
2023-02-25T19:42:13.296Z,22.50
2023-02-25T19:44:41.616Z,20.27
2023-02-25T19:47:09.904Z,21.50
2023-02-25T19:49:38.328Z,20.00
2023-02-25T19:52:06.797Z,17.33
2023-02-25T19:54:35.123Z,19.40
2023-02-25T19:57:03.756Z,19.33
2023-02-25T19:59:33.459Z,20.47
2023-02-25T20:02:01.728Z,17.73
2023-02-25T20:04:30.356Z,17.27
2023-02-25T20:06:58.819Z,16.70
2023-02-25T20:09:27.183Z,14.87
2023-02-25T20:11:55.637Z,15.07
2023-02-25T20:14:25.146Z,14.33
2023-02-25T20:16:54.846Z,14.10
2023-02-25T20:19:24.267Z,16.80
2023-02-25T20:21:53.457Z,15.93
2023-02-25T20:24:21.933Z,15.30
2023-02-25T20:26:50.544Z,14.93
2023-02-25T20:29:18.889Z,14.63
2023-02-25T20:31:47.317Z,16.87
2023-02-25T20:34:18.174Z,14.27
2023-02-25T20:36:48.542Z,14.83
2023-02-25T20:39:26.753Z,13.43
2023-02-25T20:41:55.191Z,12.90
2023-02-25T20:44:23.655Z,12.73
2023-02-25T20:46:52.274Z,13.60
2023-02-25T20:49:22.137Z,12.00
2023-02-25T20:51:51.069Z,12.83
2023-02-25T20:54:19.859Z,12.37
2023-02-25T20:56:48.506Z,10.97
2023-02-25T20:59:16.936Z,10.10
2023-02-25T21:01:45.418Z,11.43
2023-02-25T21:04:13.824Z,11.50
2023-02-25T21:06:43.500Z,10.80
2023-02-25T21:09:11.960Z,9.60
2023-02-25T21:11:40.462Z,11.13
2023-02-25T21:14:10.374Z,9.63
2023-02-25T21:16:38.902Z,8.73
2023-02-25T21:19:07.278Z,9.70
2023-02-25T21:21:37.844Z,8.90
2023-02-25T21:24:07.952Z,7.47
2023-02-25T21:26:39.282Z,8.53
2023-02-25T21:29:07.939Z,7.80
2023-02-25T21:31:36.334Z,7.93
2023-02-25T21:34:04.665Z,7.37
2023-02-25T21:36:33.160Z,8.47
2023-02-25T21:39:01.496Z,7.67
2023-02-25T21:41:31.190Z,6.60
2023-02-25T21:43:59.567Z,6.40
2023-02-25T21:46:28.255Z,6.67
2023-02-25T21:48:56.938Z,5.70
2023-02-25T21:51:26.029Z,5.80
2023-02-25T21:53:55.182Z,5.93
2023-02-25T21:56:23.950Z,5.20
2023-02-25T21:58:55.889Z,5.83
2023-02-25T22:01:24.736Z,6.47
2023-02-25T22:03:53.029Z,6.63
2023-02-25T22:06:24.181Z,5.23
2023-02-25T22:08:52.854Z,5.50
2023-02-25T22:11:21.648Z,6.07
2023-02-25T22:13:50.677Z,5.43
2023-02-25T22:16:20.474Z,5.47
2023-02-25T22:18:48.780Z,4.97
2023-02-25T22:21:17.790Z,6.27
2023-02-25T22:23:48.298Z,5.70
2023-02-25T22:26:16.890Z,5.40
2023-02-25T22:28:45.663Z,4.83
2023-02-25T22:31:14.324Z,5.13
2023-02-25T22:33:44.007Z,4.77
2023-02-25T22:36:12.801Z,4.50
2023-02-25T22:38:41.484Z,4.40
2023-02-25T22:41:12.528Z,5.53
2023-02-25T22:43:40.857Z,5.83
2023-02-25T22:46:09.335Z,4.50
2023-02-25T22:48:37.915Z,4.13
2023-02-25T22:51:09.226Z,3.80
2023-02-25T22:53:37.572Z,4.20
2023-02-25T22:56:06.226Z,4.50
2023-02-25T22:58:34.823Z,3.83
2023-02-25T23:01:03.234Z,3.83
2023-02-25T23:03:31.536Z,3.77
2023-02-25T23:06:00.237Z,4.67
2023-02-25T23:08:30.045Z,2.97
2023-02-25T23:10:58.305Z,2.87
2023-02-25T23:13:26.635Z,4.60
2023-02-25T23:15:55.228Z,3.93
2023-02-25T23:18:23.570Z,3.03
2023-02-25T23:20:53.578Z,2.70
2023-02-25T23:23:22.057Z,3.60
2023-02-25T23:25:54.460Z,4.27
2023-02-25T23:28:22.788Z,2.90
2023-02-25T23:30:51.173Z,3.10
2023-02-25T23:33:19.497Z,3.50
2023-02-25T23:35:49.886Z,2.33
2023-02-25T23:38:18.195Z,2.47
2023-02-25T23:40:46.520Z,2.90
2023-02-25T23:43:16.269Z,2.53
2023-02-25T23:45:46.899Z,3.10
2023-02-25T23:48:15.792Z,2.63
2023-02-25T23:50:44.188Z,2.07
2023-02-25T23:53:12.443Z,3.33
2023-02-25T23:55:41.050Z,2.30
2023-02-25T23:58:09.422Z,2.17
